sensor_id;sensor_type;location;lat;lon;timestamp;P1;durP1;ratioP1;P2;durP2;ratioP2
13785;SDS011;47474;48.824;9.384;2022-07-12T00:00:40;3.35;;;3.05;;
13785;SDS011;47474;48.824;9.384;2022-07-12T00:03:06;3.15;;;2.85;;
13785;SDS011;47474;48.824;9.384;2022-07-12T00:05:34;3.25;;;2.63;;
13785;SDS011;47474;48.824;9.384;2022-07-12T00:08:01;3.58;;;3.13;;
13785;SDS011;47474;48.824;9.384;2022-07-12T00:10:27;3.17;;;2.88;;
13785;SDS011;47474;48.824;9.384;2022-07-12T00:12:54;2.95;;;2.75;;
13785;SDS011;47474;48.824;9.384;2022-07-12T00:15:21;2.90;;;2.70;;
13785;SDS011;47474;48.824;9.384;2022-07-12T00:17:47;3.45;;;3.15;;
13785;SDS011;47474;48.824;9.384;2022-07-12T00:20:15;3.28;;;2.97;;
13785;SDS011;47474;48.824;9.384;2022-07-12T00:22:43;2.95;;;2.67;;
13785;SDS011;47474;48.824;9.384;2022-07-12T00:25:11;3.05;;;2.75;;
13785;SDS011;47474;48.824;9.384;2022-07-12T00:27:39;3.80;;;3.22;;
13785;SDS011;47474;48.824;9.384;2022-07-12T00:30:30;3.00;;;2.80;;
13785;SDS011;47474;48.824;9.384;2022-07-12T00:32:58;3.22;;;2.88;;
13785;SDS011;47474;48.824;9.384;2022-07-12T00:35:25;3.22;;;2.92;;
13785;SDS011;47474;48.824;9.384;2022-07-12T00:37:53;3.17;;;2.47;;
13785;SDS011;47474;48.824;9.384;2022-07-12T00:40:19;3.40;;;2.80;;
13785;SDS011;47474;48.824;9.384;2022-07-12T00:42:46;2.97;;;2.78;;
13785;SDS011;47474;48.824;9.384;2022-07-12T00:45:12;3.30;;;2.75;;
13785;SDS011;47474;48.824;9.384;2022-07-12T00:47:39;3.85;;;2.95;;
13785;SDS011;47474;48.824;9.384;2022-07-12T00:50:10;3.05;;;2.85;;
13785;SDS011;47474;48.824;9.384;2022-07-12T00:52:37;4.80;;;2.88;;
13785;SDS011;47474;48.824;9.384;2022-07-12T00:55:06;2.80;;;2.60;;
13785;SDS011;47474;48.824;9.384;2022-07-12T00:57:34;2.97;;;2.75;;
13785;SDS011;47474;48.824;9.384;2022-07-12T01:00:01;4.22;;;3.00;;
13785;SDS011;47474;48.824;9.384;2022-07-12T01:02:27;2.67;;;2.15;;
13785;SDS011;47474;48.824;9.384;2022-07-12T01:04:55;2.78;;;2.58;;
13785;SDS011;47474;48.824;9.384;2022-07-12T01:07:21;2.70;;;2.50;;
13785;SDS011;47474;48.824;9.384;2022-07-12T01:09:49;2.60;;;2.40;;
13785;SDS011;47474;48.824;9.384;2022-07-12T01:12:18;2.63;;;2.42;;
13785;SDS011;47474;48.824;9.384;2022-07-12T01:14:45;2.70;;;2.50;;
13785;SDS011;47474;48.824;9.384;2022-07-12T01:17:12;3.42;;;2.95;;
13785;SDS011;47474;48.824;9.384;2022-07-12T01:19:39;2.80;;;2.60;;
13785;SDS011;47474;48.824;9.384;2022-07-12T01:22:08;2.85;;;2.65;;
13785;SDS011;47474;48.824;9.384;2022-07-12T01:24:36;3.30;;;3.00;;
13785;SDS011;47474;48.824;9.384;2022-07-12T01:27:03;2.63;;;2.42;;
13785;SDS011;47474;48.824;9.384;2022-07-12T01:29:30;3.00;;;2.70;;
13785;SDS011;47474;48.824;9.384;2022-07-12T01:31:59;3.80;;;2.45;;
13785;SDS011;47474;48.824;9.384;2022-07-12T01:34:46;2.75;;;2.55;;
13785;SDS011;47474;48.824;9.384;2022-07-12T01:37:13;2.92;;;2.72;;
13785;SDS011;47474;48.824;9.384;2022-07-12T01:39:42;2.35;;;2.15;;
13785;SDS011;47474;48.824;9.384;2022-07-12T01:42:08;3.58;;;2.65;;
13785;SDS011;47474;48.824;9.384;2022-07-12T01:44:35;2.75;;;2.40;;
13785;SDS011;47474;48.824;9.384;2022-07-12T01:47:02;2.55;;;2.35;;
13785;SDS011;47474;48.824;9.384;2022-07-12T01:49:29;4.00;;;2.78;;
13785;SDS011;47474;48.824;9.384;2022-07-12T01:51:56;2.70;;;2.50;;
13785;SDS011;47474;48.824;9.384;2022-07-12T01:54:24;2.45;;;2.25;;
13785;SDS011;47474;48.824;9.384;2022-07-12T01:56:52;2.40;;;2.20;;
13785;SDS011;47474;48.824;9.384;2022-07-12T01:59:19;2.65;;;1.95;;
13785;SDS011;47474;48.824;9.384;2022-07-12T02:01:45;2.28;;;2.08;;
13785;SDS011;47474;48.824;9.384;2022-07-12T02:04:15;1.80;;;1.70;;
13785;SDS011;47474;48.824;9.384;2022-07-12T02:06:42;1.80;;;1.70;;
13785;SDS011;47474;48.824;9.384;2022-07-12T02:09:10;2.22;;;1.90;;
13785;SDS011;47474;48.824;9.384;2022-07-12T02:11:37;2.80;;;1.90;;
13785;SDS011;47474;48.824;9.384;2022-07-12T02:14:05;2.08;;;1.88;;
13785;SDS011;47474;48.824;9.384;2022-07-12T02:16:32;2.45;;;2.25;;
13785;SDS011;47474;48.824;9.384;2022-07-12T02:18:58;2.40;;;2.20;;
13785;SDS011;47474;48.824;9.384;2022-07-12T02:21:25;2.30;;;2.10;;
13785;SDS011;47474;48.824;9.384;2022-07-12T02:23:52;2.20;;;2.03;;
13785;SDS011;47474;48.824;9.384;2022-07-12T02:26:19;3.53;;;2.58;;
13785;SDS011;47474;48.824;9.384;2022-07-12T02:28:45;2.40;;;2.20;;
13785;SDS011;47474;48.824;9.384;2022-07-12T02:31:13;2.53;;;2.33;;
13785;SDS011;47474;48.824;9.384;2022-07-12T02:33:40;2.85;;;2.55;;
13785;SDS011;47474;48.824;9.384;2022-07-12T02:36:08;3.55;;;2.78;;
13785;SDS011;47474;48.824;9.384;2022-07-12T02:38:35;3.22;;;2.72;;
13785;SDS011;47474;48.824;9.384;2022-07-12T02:41:01;3.38;;;3.08;;
13785;SDS011;47474;48.824;9.384;2022-07-12T02:43:28;3.50;;;3.15;;
13785;SDS011;47474;48.824;9.384;2022-07-12T02:46:02;2.72;;;2.53;;
13785;SDS011;47474;48.824;9.384;2022-07-12T02:48:31;3.03;;;2.70;;
13785;SDS011;47474;48.824;9.384;2022-07-12T02:50:58;2.55;;;2.35;;
13785;SDS011;47474;48.824;9.384;2022-07-12T02:53:25;3.92;;;2.38;;
13785;SDS011;47474;48.824;9.384;2022-07-12T02:55:51;2.08;;;1.67;;
13785;SDS011;47474;48.824;9.384;2022-07-12T02:58:18;2.13;;;1.80;;
13785;SDS011;47474;48.824;9.384;2022-07-12T03:00:45;1.63;;;1.52;;
13785;SDS011;47474;48.824;9.384;2022-07-12T03:03:11;1.98;;;1.88;;
13785;SDS011;47474;48.824;9.384;2022-07-12T03:05:39;2.83;;;2.38;;
13785;SDS011;47474;48.824;9.384;2022-07-12T03:08:07;2.72;;;2.53;;
13785;SDS011;47474;48.824;9.384;2022-07-12T03:10:34;2.30;;;2.10;;
13785;SDS011;47474;48.824;9.384;2022-07-12T03:13:01;3.15;;;2.50;;
13785;SDS011;47474;48.824;9.384;2022-07-12T03:15:28;2.65;;;2.45;;
13785;SDS011;47474;48.824;9.384;2022-07-12T03:17:55;2.30;;;2.10;;
13785;SDS011;47474;48.824;9.384;2022-07-12T03:20:22;2.30;;;2.10;;
13785;SDS011;47474;48.824;9.384;2022-07-12T03:22:50;2.10;;;1.98;;
13785;SDS011;47474;48.824;9.384;2022-07-12T03:25:17;2.47;;;2.28;;
13785;SDS011;47474;48.824;9.384;2022-07-12T03:27:43;2.20;;;2.05;;
13785;SDS011;47474;48.824;9.384;2022-07-12T03:30:10;2.60;;;2.30;;
13785;SDS011;47474;48.824;9.384;2022-07-12T03:32:37;2.50;;;2.30;;
13785;SDS011;47474;48.824;9.384;2022-07-12T03:35:04;2.50;;;2.30;;
13785;SDS011;47474;48.824;9.384;2022-07-12T03:37:39;2.78;;;2.58;;
13785;SDS011;47474;48.824;9.384;2022-07-12T03:40:10;2.85;;;2.65;;
13785;SDS011;47474;48.824;9.384;2022-07-12T03:42:38;3.30;;;2.90;;
13785;SDS011;47474;48.824;9.384;2022-07-12T03:45:05;2.80;;;2.50;;
13785;SDS011;47474;48.824;9.384;2022-07-12T03:47:32;3.58;;;2.50;;
13785;SDS011;47474;48.824;9.384;2022-07-12T03:50:00;2.78;;;2.45;;
13785;SDS011;47474;48.824;9.384;2022-07-12T03:52:27;2.83;;;2.00;;
13785;SDS011;47474;48.824;9.384;2022-07-12T03:54:54;2.00;;;1.90;;
13785;SDS011;47474;48.824;9.384;2022-07-12T03:57:22;1.80;;;1.70;;
13785;SDS011;47474;48.824;9.384;2022-07-12T03:59:49;1.80;;;1.70;;
13785;SDS011;47474;48.824;9.384;2022-07-12T04:02:15;2.00;;;1.80;;
13785;SDS011;47474;48.824;9.384;2022-07-12T04:04:42;2.28;;;2.08;;
13785;SDS011;47474;48.824;9.384;2022-07-12T04:07:08;1.80;;;1.70;;
13785;SDS011;47474;48.824;9.384;2022-07-12T04:09:35;1.58;;;1.48;;
13785;SDS011;47474;48.824;9.384;2022-07-12T04:12:02;2.88;;;1.85;;
13785;SDS011;47474;48.824;9.384;2022-07-12T04:14:30;2.15;;;2.00;;
13785;SDS011;47474;48.824;9.384;2022-07-12T04:16:58;2.92;;;2.05;;
13785;SDS011;47474;48.824;9.384;2022-07-12T04:19:24;2.80;;;2.08;;
13785;SDS011;47474;48.824;9.384;2022-07-12T04:21:52;2.20;;;1.92;;
13785;SDS011;47474;48.824;9.384;2022-07-12T04:24:19;2.53;;;2.10;;
13785;SDS011;47474;48.824;9.384;2022-07-12T04:26:45;2.35;;;2.15;;
13785;SDS011;47474;48.824;9.384;2022-07-12T04:29:13;2.70;;;2.05;;
13785;SDS011;47474;48.824;9.384;2022-07-12T04:31:41;2.30;;;2.10;;
13785;SDS011;47474;48.824;9.384;2022-07-12T04:34:07;2.42;;;2.22;;
13785;SDS011;47474;48.824;9.384;2022-07-12T04:36:34;4.78;;;1.90;;
13785;SDS011;47474;48.824;9.384;2022-07-12T04:39:00;2.30;;;2.10;;
13785;SDS011;47474;48.824;9.384;2022-07-12T04:41:27;4.45;;;2.83;;
13785;SDS011;47474;48.824;9.384;2022-07-12T04:43:53;3.20;;;2.38;;
13785;SDS011;47474;48.824;9.384;2022-07-12T04:46:20;2.42;;;2.22;;
13785;SDS011;47474;48.824;9.384;2022-07-12T04:48:48;2.17;;;1.98;;
13785;SDS011;47474;48.824;9.384;2022-07-12T04:51:14;2.30;;;2.10;;
13785;SDS011;47474;48.824;9.384;2022-07-12T04:53:41;2.22;;;2.03;;
13785;SDS011;47474;48.824;9.384;2022-07-12T04:56:08;2.33;;;2.13;;
13785;SDS011;47474;48.824;9.384;2022-07-12T04:58:34;2.33;;;2.13;;
13785;SDS011;47474;48.824;9.384;2022-07-12T05:01:01;2.53;;;2.30;;
13785;SDS011;47474;48.824;9.384;2022-07-12T05:03:28;2.72;;;2.33;;
13785;SDS011;47474;48.824;9.384;2022-07-12T05:05:56;5.05;;;2.80;;
13785;SDS011;47474;48.824;9.384;2022-07-12T05:08:23;3.55;;;2.40;;
13785;SDS011;47474;48.824;9.384;2022-07-12T05:10:50;2.65;;;2.45;;
13785;SDS011;47474;48.824;9.384;2022-07-12T05:13:16;3.05;;;2.58;;
13785;SDS011;47474;48.824;9.384;2022-07-12T05:15:43;2.90;;;2.70;;
13785;SDS011;47474;48.824;9.384;2022-07-12T05:18:09;2.50;;;2.30;;
13785;SDS011;47474;48.824;9.384;2022-07-12T05:20:36;2.47;;;2.28;;
13785;SDS011;47474;48.824;9.384;2022-07-12T05:23:04;2.50;;;2.30;;
13785;SDS011;47474;48.824;9.384;2022-07-12T05:25:30;2.55;;;2.35;;
13785;SDS011;47474;48.824;9.384;2022-07-12T05:27:57;2.70;;;2.50;;
13785;SDS011;47474;48.824;9.384;2022-07-12T05:30:24;3.25;;;2.70;;
13785;SDS011;47474;48.824;9.384;2022-07-12T05:32:51;4.05;;;2.70;;
13785;SDS011;47474;48.824;9.384;2022-07-12T05:35:17;2.88;;;2.53;;
13785;SDS011;47474;48.824;9.384;2022-07-12T05:37:44;2.75;;;2.55;;
13785;SDS011;47474;48.824;9.384;2022-07-12T05:40:12;3.22;;;2.78;;
13785;SDS011;47474;48.824;9.384;2022-07-12T05:42:38;2.50;;;2.30;;
13785;SDS011;47474;48.824;9.384;2022-07-12T05:45:05;2.80;;;2.47;;
13785;SDS011;47474;48.824;9.384;2022-07-12T05:47:33;2.53;;;2.33;;
13785;SDS011;47474;48.824;9.384;2022-07-12T05:49:59;3.45;;;2.30;;
13785;SDS011;47474;48.824;9.384;2022-07-12T05:52:26;2.65;;;2.45;;
13785;SDS011;47474;48.824;9.384;2022-07-12T05:55:11;2.25;;;2.05;;
13785;SDS011;47474;48.824;9.384;2022-07-12T05:57:39;3.00;;;2.10;;
13785;SDS011;47474;48.824;9.384;2022-07-12T06:00:06;2.78;;;2.42;;
13785;SDS011;47474;48.824;9.384;2022-07-12T06:02:33;2.40;;;2.20;;
13785;SDS011;47474;48.824;9.384;2022-07-12T06:04:59;2.40;;;2.20;;
13785;SDS011;47474;48.824;9.384;2022-07-12T06:07:26;2.10;;;1.90;;
13785;SDS011;47474;48.824;9.384;2022-07-12T06:09:52;2.42;;;2.22;;
13785;SDS011;47474;48.824;9.384;2022-07-12T06:12:20;2.42;;;1.73;;
13785;SDS011;47474;48.824;9.384;2022-07-12T06:14:47;2.28;;;2.08;;
13785;SDS011;47474;48.824;9.384;2022-07-12T06:17:13;2.20;;;2.00;;
13785;SDS011;47474;48.824;9.384;2022-07-12T06:19:40;4.40;;;2.30;;
13785;SDS011;47474;48.824;9.384;2022-07-12T06:22:06;2.35;;;2.15;;
13785;SDS011;47474;48.824;9.384;2022-07-12T06:24:33;2.10;;;2.00;;
13785;SDS011;47474;48.824;9.384;2022-07-12T06:26:59;1.90;;;1.80;;
13785;SDS011;47474;48.824;9.384;2022-07-12T06:29:27;2.28;;;2.08;;
13785;SDS011;47474;48.824;9.384;2022-07-12T06:31:54;1.83;;;1.73;;
13785;SDS011;47474;48.824;9.384;2022-07-12T06:34:21;2.70;;;2.20;;
13785;SDS011;47474;48.824;9.384;2022-07-12T06:36:48;10.52;;;4.55;;
13785;SDS011;47474;48.824;9.384;2022-07-12T06:39:14;6.63;;;3.58;;
13785;SDS011;47474;48.824;9.384;2022-07-12T06:41:41;3.17;;;2.40;;
13785;SDS011;47474;48.824;9.384;2022-07-12T06:44:07;2.40;;;1.77;;
13785;SDS011;47474;48.824;9.384;2022-07-12T06:46:35;2.00;;;1.60;;
13785;SDS011;47474;48.824;9.384;2022-07-12T06:49:02;1.80;;;1.50;;
13785;SDS011;47474;48.824;9.384;2022-07-12T06:51:28;2.65;;;1.80;;
13785;SDS011;47474;48.824;9.384;2022-07-12T06:53:55;1.50;;;1.40;;
13785;SDS011;47474;48.824;9.384;2022-07-12T06:56:21;2.70;;;1.40;;
13785;SDS011;47474;48.824;9.384;2022-07-12T06:58:48;1.55;;;1.45;;
13785;SDS011;47474;48.824;9.384;2022-07-12T07:01:14;1.40;;;1.30;;
13785;SDS011;47474;48.824;9.384;2022-07-12T07:03:42;1.10;;;1.00;;
13785;SDS011;47474;48.824;9.384;2022-07-12T07:06:09;1.75;;;1.05;;
13785;SDS011;47474;48.824;9.384;2022-07-12T07:08:36;1.35;;;1.20;;
13785;SDS011;47474;48.824;9.384;2022-07-12T07:11:02;1.75;;;1.08;;
13785;SDS011;47474;48.824;9.384;2022-07-12T07:13:29;1.13;;;1.02;;
13785;SDS011;47474;48.824;9.384;2022-07-12T07:18:28;1.00;;;1.00;;
13785;SDS011;47474;48.824;9.384;2022-07-12T07:20:56;1.20;;;1.10;;
13785;SDS011;47474;48.824;9.384;2022-07-12T07:23:22;0.88;;;0.88;;
13785;SDS011;47474;48.824;9.384;2022-07-12T07:25:49;1.48;;;1.05;;
13785;SDS011;47474;48.824;9.384;2022-07-12T07:28:15;1.40;;;1.23;;
13785;SDS011;47474;48.824;9.384;2022-07-12T07:30:42;2.22;;;1.08;;
13785;SDS011;47474;48.824;9.384;2022-07-12T07:33:20;0.82;;;0.82;;
13785;SDS011;47474;48.824;9.384;2022-07-12T07:35:47;1.48;;;1.00;;
13785;SDS011;47474;48.824;9.384;2022-07-12T07:38:15;1.27;;;1.17;;
13785;SDS011;47474;48.824;9.384;2022-07-12T07:40:42;2.00;;;1.00;;
13785;SDS011;47474;48.824;9.384;2022-07-12T07:43:09;1.17;;;1.08;;
13785;SDS011;47474;48.824;9.384;2022-07-12T07:45:35;0.88;;;0.88;;
13785;SDS011;47474;48.824;9.384;2022-07-12T07:48:02;0.90;;;0.90;;
13785;SDS011;47474;48.824;9.384;2022-07-12T07:50:29;1.15;;;1.05;;
13785;SDS011;47474;48.824;9.384;2022-07-12T07:52:57;1.15;;;1.10;;
13785;SDS011;47474;48.824;9.384;2022-07-12T07:55:24;1.23;;;1.10;;
13785;SDS011;47474;48.824;9.384;2022-07-12T07:57:51;1.33;;;1.23;;
13785;SDS011;47474;48.824;9.384;2022-07-12T08:00:18;1.10;;;1.02;;
13785;SDS011;47474;48.824;9.384;2022-07-12T08:02:45;0.88;;;0.88;;
13785;SDS011;47474;48.824;9.384;2022-07-12T08:05:11;1.17;;;1.08;;
13785;SDS011;47474;48.824;9.384;2022-07-12T08:07:38;1.00;;;0.88;;
13785;SDS011;47474;48.824;9.384;2022-07-12T08:10:05;1.85;;;0.80;;
13785;SDS011;47474;48.824;9.384;2022-07-12T08:12:33;1.75;;;1.10;;
13785;SDS011;47474;48.824;9.384;2022-07-12T08:15:00;2.13;;;1.00;;
13785;SDS011;47474;48.824;9.384;2022-07-12T08:17:26;1.45;;;0.80;;
13785;SDS011;47474;48.824;9.384;2022-07-12T08:19:53;0.88;;;0.80;;
13785;SDS011;47474;48.824;9.384;2022-07-12T08:22:20;0.50;;;0.50;;
13785;SDS011;47474;48.824;9.384;2022-07-12T08:24:46;0.80;;;0.80;;
13785;SDS011;47474;48.824;9.384;2022-07-12T08:27:13;0.90;;;0.80;;
13785;SDS011;47474;48.824;9.384;2022-07-12T08:29:41;2.05;;;0.80;;
13785;SDS011;47474;48.824;9.384;2022-07-12T08:32:07;0.88;;;0.88;;
13785;SDS011;47474;48.824;9.384;2022-07-12T08:34:34;0.90;;;0.80;;
13785;SDS011;47474;48.824;9.384;2022-07-12T08:37:01;1.23;;;0.80;;
13785;SDS011;47474;48.824;9.384;2022-07-12T08:39:28;0.52;;;0.52;;
13785;SDS011;47474;48.824;9.384;2022-07-12T08:41:55;0.73;;;0.73;;
13785;SDS011;47474;48.824;9.384;2022-07-12T08:44:21;0.77;;;0.77;;
13785;SDS011;47474;48.824;9.384;2022-07-12T08:46:49;0.82;;;0.82;;
13785;SDS011;47474;48.824;9.384;2022-07-12T08:49:17;0.60;;;0.60;;
13785;SDS011;47474;48.824;9.384;2022-07-12T08:51:44;0.65;;;0.65;;
13785;SDS011;47474;48.824;9.384;2022-07-12T08:54:11;1.52;;;0.70;;
13785;SDS011;47474;48.824;9.384;2022-07-12T08:56:38;0.77;;;0.70;;
13785;SDS011;47474;48.824;9.384;2022-07-12T08:59:09;0.55;;;0.55;;
13785;SDS011;47474;48.824;9.384;2022-07-12T09:01:40;0.50;;;0.50;;
13785;SDS011;47474;48.824;9.384;2022-07-12T09:04:12;0.63;;;0.63;;
13785;SDS011;47474;48.824;9.384;2022-07-12T09:06:39;0.73;;;0.73;;
13785;SDS011;47474;48.824;9.384;2022-07-12T09:09:06;0.60;;;0.60;;
13785;SDS011;47474;48.824;9.384;2022-07-12T09:11:34;0.70;;;0.70;;
13785;SDS011;47474;48.824;9.384;2022-07-12T09:14:02;1.08;;;0.75;;
13785;SDS011;47474;48.824;9.384;2022-07-12T09:16:29;0.75;;;0.75;;
13785;SDS011;47474;48.824;9.384;2022-07-12T09:19:11;0.47;;;0.40;;
13785;SDS011;47474;48.824;9.384;2022-07-12T09:21:45;2.00;;;0.68;;
13785;SDS011;47474;48.824;9.384;2022-07-12T09:24:13;2.42;;;0.68;;
13785;SDS011;47474;48.824;9.384;2022-07-12T09:26:39;0.75;;;0.70;;
13785;SDS011;47474;48.824;9.384;2022-07-12T09:29:06;0.55;;;0.55;;
13785;SDS011;47474;48.824;9.384;2022-07-12T09:31:38;0.65;;;0.63;;
13785;SDS011;47474;48.824;9.384;2022-07-12T09:34:05;0.98;;;0.80;;
13785;SDS011;47474;48.824;9.384;2022-07-12T09:36:57;0.70;;;0.70;;
13785;SDS011;47474;48.824;9.384;2022-07-12T09:39:24;0.98;;;0.45;;
13785;SDS011;47474;48.824;9.384;2022-07-12T09:41:52;0.60;;;0.60;;
13785;SDS011;47474;48.824;9.384;2022-07-12T09:44:20;0.80;;;0.57;;
13785;SDS011;47474;48.824;9.384;2022-07-12T09:46:46;0.88;;;0.70;;
13785;SDS011;47474;48.824;9.384;2022-07-12T09:49:13;2.95;;;0.70;;
13785;SDS011;47474;48.824;9.384;2022-07-12T09:51:40;0.80;;;0.80;;
13785;SDS011;47474;48.824;9.384;2022-07-12T09:54:09;3.03;;;0.50;;
13785;SDS011;47474;48.824;9.384;2022-07-12T09:56:37;0.57;;;0.57;;
13785;SDS011;47474;48.824;9.384;2022-07-12T09:59:06;0.50;;;0.50;;
13785;SDS011;47474;48.824;9.384;2022-07-12T10:01:35;4.75;;;0.82;;
13785;SDS011;47474;48.824;9.384;2022-07-12T10:04:03;0.50;;;0.50;;
13785;SDS011;47474;48.824;9.384;2022-07-12T10:06:30;0.47;;;0.47;;
13785;SDS011;47474;48.824;9.384;2022-07-12T10:08:57;1.17;;;0.80;;
13785;SDS011;47474;48.824;9.384;2022-07-12T10:11:25;0.93;;;0.60;;
13785;SDS011;47474;48.824;9.384;2022-07-12T10:13:51;0.50;;;0.50;;
13785;SDS011;47474;48.824;9.384;2022-07-12T10:16:24;0.40;;;0.40;;
13785;SDS011;47474;48.824;9.384;2022-07-12T10:21:49;0.57;;;0.57;;
13785;SDS011;47474;48.824;9.384;2022-07-12T10:27:33;0.68;;;0.68;;
13785;SDS011;47474;48.824;9.384;2022-07-12T10:30:14;0.40;;;0.40;;
13785;SDS011;47474;48.824;9.384;2022-07-12T10:32:42;0.40;;;0.40;;
13785;SDS011;47474;48.824;9.384;2022-07-12T10:35:12;0.52;;;0.50;;
13785;SDS011;47474;48.824;9.384;2022-07-12T10:37:42;0.50;;;0.50;;
13785;SDS011;47474;48.824;9.384;2022-07-12T10:40:50;0.50;;;0.50;;
13785;SDS011;47474;48.824;9.384;2022-07-12T10:43:20;1.13;;;0.40;;
13785;SDS011;47474;48.824;9.384;2022-07-12T10:46:13;0.60;;;0.60;;
13785;SDS011;47474;48.824;9.384;2022-07-12T10:48:40;0.70;;;0.60;;
13785;SDS011;47474;48.824;9.384;2022-07-12T10:51:12;0.45;;;0.43;;
13785;SDS011;47474;48.824;9.384;2022-07-12T10:53:39;0.52;;;0.52;;
13785;SDS011;47474;48.824;9.384;2022-07-12T10:56:08;0.50;;;0.50;;
13785;SDS011;47474;48.824;9.384;2022-07-12T10:58:37;0.45;;;0.45;;
13785;SDS011;47474;48.824;9.384;2022-07-12T11:01:07;0.40;;;0.40;;
13785;SDS011;47474;48.824;9.384;2022-07-12T11:03:37;0.40;;;0.40;;
13785;SDS011;47474;48.824;9.384;2022-07-12T11:06:05;0.40;;;0.40;;
13785;SDS011;47474;48.824;9.384;2022-07-12T11:08:32;0.50;;;0.50;;
13785;SDS011;47474;48.824;9.384;2022-07-12T11:11:13;0.57;;;0.57;;
13785;SDS011;47474;48.824;9.384;2022-07-12T11:13:41;0.60;;;0.60;;
13785;SDS011;47474;48.824;9.384;2022-07-12T11:16:07;0.85;;;0.60;;
13785;SDS011;47474;48.824;9.384;2022-07-12T11:18:34;0.50;;;0.50;;
13785;SDS011;47474;48.824;9.384;2022-07-12T11:21:02;0.43;;;0.43;;
13785;SDS011;47474;48.824;9.384;2022-07-12T11:23:29;0.50;;;0.50;;
13785;SDS011;47474;48.824;9.384;2022-07-12T11:25:56;0.57;;;0.57;;
13785;SDS011;47474;48.824;9.384;2022-07-12T11:28:23;0.40;;;0.40;;
13785;SDS011;47474;48.824;9.384;2022-07-12T11:30:51;0.50;;;0.50;;
13785;SDS011;47474;48.824;9.384;2022-07-12T11:33:18;0.68;;;0.60;;
13785;SDS011;47474;48.824;9.384;2022-07-12T11:35:45;0.75;;;0.75;;
13785;SDS011;47474;48.824;9.384;2022-07-12T11:38:12;0.40;;;0.40;;
13785;SDS011;47474;48.824;9.384;2022-07-12T11:40:39;0.60;;;0.60;;
13785;SDS011;47474;48.824;9.384;2022-07-12T11:43:05;0.98;;;0.65;;
13785;SDS011;47474;48.824;9.384;2022-07-12T11:45:33;0.75;;;0.40;;
13785;SDS011;47474;48.824;9.384;2022-07-12T11:48:02;0.50;;;0.50;;
13785;SDS011;47474;48.824;9.384;2022-07-12T11:50:30;0.35;;;0.35;;
13785;SDS011;47474;48.824;9.384;2022-07-12T11:52:59;0.68;;;0.55;;
13785;SDS011;47474;48.824;9.384;2022-07-12T11:55:26;0.43;;;0.43;;
13785;SDS011;47474;48.824;9.384;2022-07-12T11:58:02;0.47;;;0.47;;
13785;SDS011;47474;48.824;9.384;2022-07-12T12:00:29;0.43;;;0.43;;
13785;SDS011;47474;48.824;9.384;2022-07-12T12:02:56;0.60;;;0.60;;
13785;SDS011;47474;48.824;9.384;2022-07-12T12:05:24;0.55;;;0.55;;
13785;SDS011;47474;48.824;9.384;2022-07-12T12:07:51;0.60;;;0.60;;
13785;SDS011;47474;48.824;9.384;2022-07-12T12:10:18;0.60;;;0.60;;
13785;SDS011;47474;48.824;9.384;2022-07-12T12:12:45;1.92;;;0.60;;
13785;SDS011;47474;48.824;9.384;2022-07-12T12:15:13;0.40;;;0.40;;
13785;SDS011;47474;48.824;9.384;2022-07-12T12:17:45;0.63;;;0.63;;
13785;SDS011;47474;48.824;9.384;2022-07-12T12:20:13;0.68;;;0.68;;
13785;SDS011;47474;48.824;9.384;2022-07-12T12:22:43;0.50;;;0.50;;
13785;SDS011;47474;48.824;9.384;2022-07-12T12:25:10;0.30;;;0.30;;
13785;SDS011;47474;48.824;9.384;2022-07-12T12:27:40;0.70;;;0.70;;
13785;SDS011;47474;48.824;9.384;2022-07-12T12:30:08;0.65;;;0.52;;
13785;SDS011;47474;48.824;9.384;2022-07-12T12:32:49;0.95;;;0.50;;
13785;SDS011;47474;48.824;9.384;2022-07-12T12:35:17;0.55;;;0.52;;
13785;SDS011;47474;48.824;9.384;2022-07-12T12:37:53;0.75;;;0.45;;
13785;SDS011;47474;48.824;9.384;2022-07-12T12:40:21;0.30;;;0.30;;
13785;SDS011;47474;48.824;9.384;2022-07-12T12:42:49;0.45;;;0.45;;
13785;SDS011;47474;48.824;9.384;2022-07-12T12:45:17;0.57;;;0.40;;
13785;SDS011;47474;48.824;9.384;2022-07-12T12:47:54;0.75;;;0.65;;
13785;SDS011;47474;48.824;9.384;2022-07-12T12:53:14;0.40;;;0.40;;
13785;SDS011;47474;48.824;9.384;2022-07-12T12:55:43;0.50;;;0.50;;
13785;SDS011;47474;48.824;9.384;2022-07-12T12:58:10;0.75;;;0.55;;
13785;SDS011;47474;48.824;9.384;2022-07-12T13:00:38;0.35;;;0.35;;
13785;SDS011;47474;48.824;9.384;2022-07-12T13:03:06;0.43;;;0.43;;
13785;SDS011;47474;48.824;9.384;2022-07-12T13:05:32;0.45;;;0.30;;
13785;SDS011;47474;48.824;9.384;2022-07-12T13:07:59;0.50;;;0.50;;
13785;SDS011;47474;48.824;9.384;2022-07-12T13:10:28;0.47;;;0.47;;
13785;SDS011;47474;48.824;9.384;2022-07-12T13:12:54;0.80;;;0.80;;
13785;SDS011;47474;48.824;9.384;2022-07-12T13:15:21;0.68;;;0.50;;
13785;SDS011;47474;48.824;9.384;2022-07-12T13:17:48;0.50;;;0.50;;
13785;SDS011;47474;48.824;9.384;2022-07-12T13:20:14;0.68;;;0.68;;
13785;SDS011;47474;48.824;9.384;2022-07-12T13:22:41;0.57;;;0.57;;
13785;SDS011;47474;48.824;9.384;2022-07-12T13:25:08;0.50;;;0.50;;
13785;SDS011;47474;48.824;9.384;2022-07-12T13:27:37;0.50;;;0.50;;
13785;SDS011;47474;48.824;9.384;2022-07-12T13:30:04;0.45;;;0.45;;
13785;SDS011;47474;48.824;9.384;2022-07-12T13:32:32;0.40;;;0.40;;
13785;SDS011;47474;48.824;9.384;2022-07-12T13:34:59;0.40;;;0.40;;
13785;SDS011;47474;48.824;9.384;2022-07-12T13:37:25;0.60;;;0.60;;
13785;SDS011;47474;48.824;9.384;2022-07-12T13:39:52;0.47;;;0.47;;
13785;SDS011;47474;48.824;9.384;2022-07-12T13:42:40;0.45;;;0.32;;
13785;SDS011;47474;48.824;9.384;2022-07-12T13:45:08;0.80;;;0.45;;
13785;SDS011;47474;48.824;9.384;2022-07-12T13:47:36;0.50;;;0.50;;
13785;SDS011;47474;48.824;9.384;2022-07-12T13:50:03;0.60;;;0.60;;
13785;SDS011;47474;48.824;9.384;2022-07-12T13:52:30;1.10;;;0.50;;
13785;SDS011;47474;48.824;9.384;2022-07-12T13:54:56;0.40;;;0.40;;
13785;SDS011;47474;48.824;9.384;2022-07-12T13:57:23;1.05;;;0.65;;
13785;SDS011;47474;48.824;9.384;2022-07-12T13:59:51;0.75;;;0.75;;
13785;SDS011;47474;48.824;9.384;2022-07-12T14:02:17;0.60;;;0.60;;
13785;SDS011;47474;48.824;9.384;2022-07-12T14:04:44;0.60;;;0.60;;
13785;SDS011;47474;48.824;9.384;2022-07-12T14:07:11;0.60;;;0.50;;
13785;SDS011;47474;48.824;9.384;2022-07-12T14:09:37;0.88;;;0.80;;
13785;SDS011;47474;48.824;9.384;2022-07-12T14:12:04;0.50;;;0.50;;
13785;SDS011;47474;48.824;9.384;2022-07-12T14:14:33;0.73;;;0.50;;
13785;SDS011;47474;48.824;9.384;2022-07-12T14:17:15;0.40;;;0.40;;
13785;SDS011;47474;48.824;9.384;2022-07-12T14:19:41;0.98;;;0.35;;
13785;SDS011;47474;48.824;9.384;2022-07-12T14:22:08;0.60;;;0.60;;
13785;SDS011;47474;48.824;9.384;2022-07-12T14:24:34;1.00;;;0.55;;
13785;SDS011;47474;48.824;9.384;2022-07-12T14:27:01;0.80;;;0.47;;
13785;SDS011;47474;48.824;9.384;2022-07-12T14:29:28;1.17;;;0.60;;
13785;SDS011;47474;48.824;9.384;2022-07-12T14:31:55;0.60;;;0.60;;
13785;SDS011;47474;48.824;9.384;2022-07-12T14:34:24;0.60;;;0.60;;
13785;SDS011;47474;48.824;9.384;2022-07-12T14:36:50;0.43;;;0.43;;
13785;SDS011;47474;48.824;9.384;2022-07-12T14:39:17;0.30;;;0.30;;
13785;SDS011;47474;48.824;9.384;2022-07-12T14:41:43;0.60;;;0.60;;
13785;SDS011;47474;48.824;9.384;2022-07-12T14:44:10;0.70;;;0.60;;
13785;SDS011;47474;48.824;9.384;2022-07-12T14:46:36;0.63;;;0.63;;
13785;SDS011;47474;48.824;9.384;2022-07-12T14:49:04;0.50;;;0.50;;
13785;SDS011;47474;48.824;9.384;2022-07-12T14:51:32;0.55;;;0.55;;
13785;SDS011;47474;48.824;9.384;2022-07-12T14:53:59;1.00;;;0.55;;
13785;SDS011;47474;48.824;9.384;2022-07-12T14:56:25;0.60;;;0.60;;
13785;SDS011;47474;48.824;9.384;2022-07-12T14:58:52;0.70;;;0.70;;
13785;SDS011;47474;48.824;9.384;2022-07-12T15:01:18;0.55;;;0.55;;
13785;SDS011;47474;48.824;9.384;2022-07-12T15:03:45;0.60;;;0.60;;